Flight Track Log - Related Links

Times and Time Zones

All times are in EDT time to prevent confusion due to time zone crossing. See the EJA831 flight status page for this flight to view local times or setup timezone preferences in your user account.

Time Position Orientation Groundspeed Altitude Reporting Facility
EDT Latitude Longitude Course Direction KTS MPH feet Rate Location/Type
Wed 04:55:00 PM 47.5428 -122.3133 327° Northwest 153 176 1,200  Level Seattle Center
Wed 04:55:13 PM 47.5514 -122.3217 327° Northwest 156 180 1,600 811 Climbing Seattle Center
Wed 04:56:14 PM 47.5953 -122.3631 328° Northwest 202 232 2,200 347 Climbing Seattle Center
Wed 04:57:14 PM 47.6036 -122.4406 279° West 210 242 2,300 645 Climbing Seattle Center
Wed 04:58:15 PM 47.5981 -122.5158 264° West 189 217 3,500 2,016 Climbing Seattle Center
Wed 04:59:16 PM 47.5703 -122.5903 241° Southwest 218 251 6,400 3,207 Climbing Seattle Center
Wed 05:00:11 PM 47.5192 -122.6275 206° Southwest 227 261 9,700 2,948 Climbing Seattle Center
Wed 05:01:12 PM 47.4483 -122.6142 173° South 279 321 12,100 2,361 Climbing Seattle Center
Wed 05:02:13 PM 47.3700 -122.5550 153° Southeast 318 366 14,500 2,557 Climbing Seattle Center
Wed 05:03:14 PM 47.2844 -122.5108 161° South 327 376 17,300 2,410 Climbing Seattle Center
Wed 05:04:15 PM 47.2050 -122.4747 163° South 327 376 19,400 2,410 Climbing Seattle Center
Wed 05:05:16 PM 47.1169 -122.4347 163° South 331 381 22,200 1,770 Climbing Seattle Center
Wed 05:06:17 PM 47.0025 -122.3828 163° South 364 419 23,000 1,623 Climbing Seattle Center
Wed 05:07:18 PM 46.8981 -122.3364 163° South 389 448 25,500 2,115 Climbing Seattle Center
Wed 05:08:19 PM 46.7992 -122.2925 163° South 377 434 27,300 1,918 Climbing Seattle Center
Wed 05:09:20 PM 46.6975 -122.2467 163° South 378 435 29,400 2,115 Climbing Seattle Center
Wed 05:10:21 PM 46.5992 -122.2028 163° South 372 428 31,600 1,869 Climbing Seattle Center
Wed 05:11:22 PM 46.5006 -122.1581 163° South 370 426 33,200 1,623 Climbing Seattle Center
Wed 05:12:23 PM 46.4017 -122.1150 163° South 372 428 34,900 885 Climbing Seattle Center
Wed 05:13:24 PM 46.2961 -122.0681 163° South 394 453 35,000 49 Climbing Seattle Center
Wed 05:14:25 PM 46.1778 -122.0169 163° South 428 493 35,000  Level Seattle Center
Wed 05:15:26 PM 46.0583 -121.9656 163° South 443 510 35,000  Level Seattle Center
Wed 05:16:27 PM 45.9350 -121.9103 163° South 445 512 35,000  Level Seattle Center
Wed 05:17:28 PM 45.8156 -121.8578 163° South 449 517 35,000  Level Seattle Center
Wed 05:18:29 PM 45.6969 -121.8081 164° South 450 518 35,000  Level Seattle Center
Wed 05:19:30 PM 45.5772 -121.7556 163° South 450 518 35,000  Level Seattle Center
Wed 05:20:31 PM 45.4578 -121.7058 164° South 450 518 35,000  Level Seattle Center
Wed 05:21:32 PM 45.3386 -121.6542 163° South 450 518 35,000  Level Seattle Center
Wed 05:22:33 PM 45.1953 -121.5931 163° South 450 518 35,000  Level Seattle Center
Wed 05:23:34 PM 45.0758 -121.5425 163° South 450 518 35,000  Level Seattle Center
Wed 05:24:35 PM 44.9558 -121.4931 164° South 450 518 35,000  Level Seattle Center
Wed 05:25:36 PM 44.8428 -121.4453 163° South 450 518 35,000  Level Seattle Center
Wed 05:26:37 PM 44.7225 -121.3964 164° South 450 518 35,000  Level Seattle Center
Wed 05:27:38 PM 44.6014 -121.3458 163° South 451 519 35,000  Level Seattle Center
Wed 05:28:39 PM 44.4800 -121.2967 164° South 452 520 35,000  Level Seattle Center
Wed 05:29:40 PM 44.3544 -121.2458 164° South 452 520 35,000  Level Seattle Center
Wed 05:30:41 PM 44.2325 -121.1928 163° South 462 532 35,000  Level Seattle Center
Wed 05:31:42 PM 44.1092 -121.1458 165° South 469 540 35,000  Level Seattle Center
Wed 05:32:43 PM 43.9644 -121.0900 164° South 455 524 35,000  Level Seattle Center
Wed 05:33:44 PM 43.8422 -121.0456 165° South 455 524 35,000  Level Seattle Center
Wed 05:34:45 PM 43.7211 -121.0017 165° South 455 524 35,000  Level Seattle Center
Wed 05:35:46 PM 43.5992 -120.9561 165° South 455 524 35,000  Level Seattle Center
Wed 05:36:47 PM 43.4867 -120.9186 166° South 455 524 35,000  Level Seattle Center
Wed 05:37:48 PM 43.3647 -120.8767 166° South 454 522 35,000  Level Seattle Center
Wed 05:38:49 PM 43.2172 -120.8228 165° South 454 522 35,000  Level Seattle Center
Wed 05:39:50 PM 43.0939 -120.7772 165° South 456 525 35,000  Level Seattle Center
Wed 05:40:51 PM 42.9697 -120.7353 166° South 457 526 35,000  Level Seattle Center
Wed 05:41:52 PM 42.8469 -120.6917 165° South 457 526 35,000  Level Seattle Center
Wed 05:42:53 PM 42.7247 -120.6483 165° South 456 525 35,000  Level Seattle Center
Wed 05:43:54 PM 42.6019 -120.6067 166° South 457 526 35,000  Level Seattle Center
Wed 05:44:55 PM 42.4778 -120.5636 166° South 458 527 35,000  Level Seattle Center
Wed 05:45:56 PM 42.3539 -120.5211 166° South 459 528 35,000  Level Seattle Center
Wed 05:46:57 PM 42.2297 -120.4769 165° South 460 529 35,000  Level Seattle Center
Wed 05:47:58 PM 42.1050 -120.4356 166° South 461 531 35,000  Level Seattle Center
Wed 05:48:59 PM 41.9814 -120.3936 166° South 461 531 35,000  Level Seattle Center
Wed 05:50:00 PM 41.8592 -120.3492 165° South 456 525 35,000  Level Seattle Center
Wed 05:51:01 PM 41.7333 -120.3067 166° South 459 528 35,000  Level Seattle Center
Wed 05:52:02 PM 41.6050 -120.2667 167° South 472 543 35,000  Level Seattle Center
Wed 05:53:03 PM 41.4814 -120.2242 166° South 461 531 35,000  Level Seattle Center
Wed 05:54:04 PM 41.3553 -120.1819 166° South 461 531 35,000 -541 Level Seattle Center
Wed 05:55:05 PM 41.2050 -120.1319 166° South 462 532 33,900 -1,082 Descending Seattle Center
Wed 05:56:06 PM 41.0828 -120.0933 167° South 455 524 32,800 -1,377 Descending Seattle Center
Wed 05:57:07 PM 40.9611 -120.0589 168° South 449 517 31,100 -1,623 Descending Seattle Center
Wed 05:58:08 PM 40.8408 -120.0247 168° South 447 514 29,500 -1,574 Descending Seattle Center
Wed 05:59:09 PM 40.7183 -119.9886 167° South 447 514 27,900 -1,721 Descending Seattle Center
Wed 06:00:10 PM 40.5842 -119.9514 168° South 450 518 26,000 -1,938 Descending Seattle Center
Wed 06:00:45 PM 40.5358 -119.9367 167° South 451 519 24,800 -2,845 Descending Oakland Center
Wed 06:01:47 PM 40.3997 -119.8964 167° South 425 489 21,400 -2,683 Descending Oakland Center
Wed 06:02:48 PM 40.2903 -119.8658 168° South 406 467 19,300 -2,016 Descending Oakland Center
Wed 06:03:49 PM 40.1867 -119.8372 168° South 390 449 17,300 -1,918 Descending Oakland Center
Wed 06:04:50 PM 40.0886 -119.8100 168° South 373 429 15,400 -1,869 Descending Oakland Center
Wed 06:05:51 PM 39.9983 -119.7853 168° South 347 399 13,500 -1,770 Descending Oakland Center
Wed 06:06:52 PM 39.9075 -119.7592 168° South 339 390 11,800 -1,672 Descending Oakland Center
Wed 06:07:53 PM 39.8236 -119.7369 168° South 320 368 10,100 -1,180 Descending Oakland Center
Wed 06:08:54 PM 39.7444 -119.7275 175° South 296 341 9,400 -1,180 Descending Oakland Center
Wed 06:09:55 PM 39.6653 -119.7483 191° South 284 327 7,700 -1,511 Descending Oakland Center
Wed 06:11:09 PM 39.5833 -119.7667 190° South 207 238 6,000 -1,119 Descending Northern Cal TRACON
Wed 06:12:09 PM 39.5500 -119.7667 180° South 163 188 5,200 -800 Descending Northern Cal TRACON
Wed 06:14:00 PM 39.4991 -119.7681 237° Southwest  Level Estimated
Wed 06:21:00 PM 39.4991 -119.7681 237° Southwest  Level Estimated

Login

Don't have an account? Register now (free) for customized features, flight alerts, and more!